createdAt,value
2019-02-16T00:00:52.486Z,6.80
2019-02-16T00:02:55.550Z,6.80
2019-02-16T00:04:59.268Z,6.70
2019-02-16T00:07:03.052Z,6.70
2019-02-16T00:09:06.732Z,6.60
2019-02-16T00:11:09.710Z,6.60
2019-02-16T00:13:12.637Z,6.60
2019-02-16T00:15:15.556Z,6.60
2019-02-16T00:17:18.532Z,6.50
2019-02-16T00:19:21.483Z,6.50
2019-02-16T00:21:24.403Z,6.50
2019-02-16T00:23:27.354Z,6.40
2019-02-16T00:25:30.269Z,6.40
2019-02-16T00:27:33.293Z,6.40
2019-02-16T00:29:37.096Z,6.30
2019-02-16T00:31:40.780Z,6.30
2019-02-16T00:33:44.476Z,6.20
2019-02-16T00:35:47.595Z,6.20
2019-02-16T00:37:51.390Z,6.10
2019-02-16T00:39:55.186Z,6.00
2019-02-16T00:41:59.420Z,6.00
2019-02-16T00:44:02.876Z,6.00
2019-02-16T00:46:06.577Z,5.90
2019-02-16T00:48:10.010Z,5.90
2019-02-16T00:50:12.925Z,5.90
2019-02-16T00:52:15.954Z,5.80
2019-02-16T00:54:19.675Z,5.80
2019-02-16T00:56:22.611Z,5.70
2019-02-16T00:58:25.528Z,5.70
2019-02-16T01:00:29.317Z,5.60
2019-02-16T01:02:33.004Z,5.60
2019-02-16T01:04:36.716Z,5.60
2019-02-16T01:06:41.151Z,5.50
2019-02-16T01:08:44.065Z,5.50
2019-02-16T01:10:46.988Z,5.50
2019-02-16T01:12:51.133Z,5.40
2019-02-16T01:14:54.191Z,5.40
2019-02-16T01:16:57.876Z,5.30
2019-02-16T01:19:00.825Z,5.30
2019-02-16T01:21:03.740Z,5.30
2019-02-16T01:23:06.661Z,5.30
2019-02-16T01:25:09.609Z,5.20
2019-02-16T01:27:14.028Z,5.10
2019-02-16T01:29:17.736Z,5.10
2019-02-16T01:31:21.538Z,5.10
2019-02-16T01:33:25.340Z,5.10
2019-02-16T01:35:29.024Z,5.00
2019-02-16T01:37:31.959Z,5.00
2019-02-16T01:39:34.871Z,5.00
2019-02-16T01:41:37.816Z,5.00
2019-02-16T01:43:41.216Z,5.00
2019-02-16T01:45:44.147Z,4.90
2019-02-16T01:47:47.101Z,4.90
2019-02-16T01:49:50.063Z,4.90
2019-02-16T01:51:55.127Z,4.90
2019-02-16T01:53:58.107Z,4.90
2019-02-16T01:56:01.248Z,4.90
2019-02-16T01:58:04.167Z,4.90
2019-02-16T02:00:07.188Z,4.90
2019-02-16T02:02:10.913Z,4.90
2019-02-16T02:04:13.836Z,4.90
2019-02-16T02:06:16.860Z,4.90
2019-02-16T02:08:19.796Z,4.80
2019-02-16T02:10:22.723Z,4.90
2019-02-16T02:12:26.408Z,4.80
2019-02-16T02:14:29.735Z,4.80
2019-02-16T02:16:32.667Z,4.80
2019-02-16T02:18:35.587Z,4.80
2019-02-16T02:20:38.541Z,4.80
2019-02-16T02:22:41.463Z,4.80
2019-02-16T02:24:44.380Z,4.80
2019-02-16T02:26:47.508Z,4.80
2019-02-16T02:28:51.199Z,4.70
2019-02-16T02:30:54.885Z,4.70
2019-02-16T02:32:58.096Z,4.70
2019-02-16T02:35:01.923Z,4.60
2019-02-16T02:37:04.812Z,4.60
2019-02-16T02:39:07.934Z,4.60
2019-02-16T02:41:10.820Z,4.60
2019-02-16T02:43:13.692Z,4.60
2019-02-16T02:45:16.605Z,4.50
2019-02-16T02:47:20.160Z,4.50
2019-02-16T02:49:23.067Z,4.50
2019-02-16T02:51:27.468Z,4.40
2019-02-16T02:53:31.573Z,4.40
2019-02-16T02:55:33.334Z,4.40
2019-02-16T02:57:36.322Z,4.40
2019-02-16T02:59:39.192Z,4.30
2019-02-16T03:01:42.400Z,4.30
2019-02-16T03:03:46.707Z,4.30
2019-02-16T03:05:49.585Z,4.20
2019-02-16T03:07:52.464Z,4.20
2019-02-16T03:09:55.450Z,4.20
2019-02-16T03:11:59.175Z,4.20
2019-02-16T03:14:02.804Z,4.10
2019-02-16T03:16:05.700Z,4.10
2019-02-16T03:18:08.581Z,4.10
2019-02-16T03:20:12.584Z,4.10
2019-02-16T03:22:16.458Z,4.00
2019-02-16T03:24:20.092Z,4.00
2019-02-16T03:26:31.704Z,4.00
2019-02-16T03:28:42.635Z,3.90
2019-02-16T03:30:50.088Z,3.90
2019-02-16T03:32:57.269Z,3.90
2019-02-16T03:35:09.599Z,3.80
2019-02-16T03:37:43.940Z,3.80
2019-02-16T03:39:47.384Z,3.80
2019-02-16T03:41:51.060Z,3.70
2019-02-16T03:43:54.040Z,3.70
2019-02-16T03:45:57.707Z,3.60
2019-02-16T03:48:01.464Z,3.60
2019-02-16T03:50:05.138Z,3.60
2019-02-16T03:52:13.966Z,3.60
2019-02-16T03:54:11.821Z,3.60
2019-02-16T03:56:14.805Z,3.60
2019-02-16T03:58:17.821Z,3.60
2019-02-16T04:00:21.077Z,3.60
2019-02-16T04:02:23.953Z,3.50
2019-02-16T04:04:26.950Z,3.50
2019-02-16T04:06:30.667Z,3.40
2019-02-16T04:08:34.643Z,3.40
2019-02-16T04:10:37.627Z,3.40
2019-02-16T04:12:40.744Z,3.40
2019-02-16T04:14:44.623Z,3.30
2019-02-16T04:16:48.011Z,3.30
2019-02-16T04:18:50.901Z,3.30
2019-02-16T04:20:54.966Z,3.20
2019-02-16T04:22:57.879Z,3.20
2019-02-16T04:25:00.999Z,3.10
2019-02-16T04:27:04.671Z,3.10
2019-02-16T04:29:07.652Z,3.10
2019-02-16T04:31:10.639Z,3.10
2019-02-16T04:33:13.621Z,3.10
2019-02-16T04:35:16.531Z,3.10
2019-02-16T04:37:20.682Z,3.00
2019-02-16T04:39:24.001Z,3.00
2019-02-16T04:41:27.089Z,3.00
2019-02-16T04:43:29.976Z,3.00
2019-02-16T04:45:32.960Z,3.00
2019-02-16T04:47:36.751Z,3.00
2019-02-16T04:49:39.731Z,3.00
2019-02-16T04:51:44.268Z,3.00
2019-02-16T04:53:47.956Z,3.00
2019-02-16T04:55:50.818Z,3.00
2019-02-16T04:57:53.680Z,3.00
2019-02-16T04:59:56.808Z,3.00
2019-02-16T05:01:59.676Z,3.00
2019-02-16T05:04:02.560Z,3.00
2019-02-16T05:06:05.462Z,3.00
2019-02-16T05:08:09.956Z,2.90
2019-02-16T05:10:12.952Z,2.90
2019-02-16T05:12:17.076Z,2.90
2019-02-16T05:14:20.387Z,2.90
2019-02-16T05:16:23.342Z,2.90
2019-02-16T05:18:26.986Z,2.90
2019-02-16T05:20:29.936Z,2.80
2019-02-16T05:22:33.608Z,2.80
2019-02-16T05:24:36.589Z,2.80
2019-02-16T05:26:39.578Z,2.80
2019-02-16T05:28:42.566Z,2.80
2019-02-16T05:30:45.772Z,2.80
2019-02-16T05:32:49.647Z,2.80
2019-02-16T05:34:53.499Z,2.80
2019-02-16T05:36:56.463Z,2.80
2019-02-16T05:39:00.143Z,2.80
2019-02-16T05:41:03.116Z,2.80
2019-02-16T05:43:06.105Z,2.80
2019-02-16T05:45:09.086Z,2.70
2019-02-16T05:47:11.963Z,2.70
2019-02-16T05:49:14.840Z,2.80
2019-02-16T05:51:19.273Z,2.70
2019-02-16T05:53:22.224Z,2.70
2019-02-16T05:55:25.460Z,2.80
2019-02-16T05:57:30.059Z,2.70
2019-02-16T05:59:32.934Z,2.70
2019-02-16T06:01:35.825Z,2.70
2019-02-16T06:03:38.723Z,2.70
2019-02-16T06:05:42.988Z,2.70
2019-02-16T06:07:45.904Z,2.70
2019-02-16T06:09:49.617Z,2.70
2019-02-16T06:11:54.187Z,2.70
2019-02-16T06:13:57.075Z,2.70
2019-02-16T06:16:00.657Z,2.70
2019-02-16T06:18:04.361Z,2.70
2019-02-16T06:20:07.236Z,2.60
2019-02-16T06:22:10.201Z,2.60
2019-02-16T06:24:13.139Z,2.60
2019-02-16T06:26:16.022Z,2.60
2019-02-16T06:28:19.130Z,2.60
2019-02-16T06:30:22.800Z,2.60
2019-02-16T06:32:25.683Z,2.60
2019-02-16T06:34:28.668Z,2.60
2019-02-16T06:36:31.541Z,2.60
2019-02-16T06:38:34.453Z,2.60
2019-02-16T06:40:38.137Z,2.60
2019-02-16T06:42:41.013Z,2.60
2019-02-16T06:44:43.932Z,2.60
2019-02-16T06:46:46.876Z,2.60
2019-02-16T06:48:49.763Z,2.60
2019-02-16T06:50:52.702Z,2.60
2019-02-16T06:52:55.608Z,2.60
2019-02-16T06:54:58.489Z,2.60
2019-02-16T06:57:02.172Z,2.50
2019-02-16T06:59:05.513Z,2.60
2019-02-16T07:01:09.144Z,2.50
2019-02-16T07:03:12.176Z,2.50
2019-02-16T07:05:15.972Z,2.50
2019-02-16T07:07:18.958Z,2.50
2019-02-16T07:09:21.843Z,2.50
2019-02-16T07:11:25.543Z,2.60
2019-02-16T07:13:29.491Z,2.60
2019-02-16T07:15:32.688Z,2.60
2019-02-16T07:17:37.972Z,2.60
2019-02-16T07:19:41.627Z,2.60
2019-02-16T07:21:45.291Z,2.60
2019-02-16T07:23:48.995Z,2.70
2019-02-16T07:25:51.945Z,2.60
2019-02-16T07:27:54.877Z,2.70
2019-02-16T07:29:57.785Z,2.70
2019-02-16T07:32:00.721Z,2.70
2019-02-16T07:34:03.796Z,2.80
2019-02-16T07:36:07.484Z,2.80
2019-02-16T07:38:10.360Z,2.80
2019-02-16T07:40:13.255Z,2.80
2019-02-16T07:42:16.967Z,2.90
2019-02-16T07:44:26.224Z,3.00
2019-02-16T07:46:31.313Z,3.00
2019-02-16T07:48:37.079Z,3.10
2019-02-16T07:50:44.228Z,3.20
2019-02-16T07:52:50.887Z,3.10
2019-02-16T07:55:00.580Z,3.20
2019-02-16T07:57:05.957Z,3.30
2019-02-16T07:59:09.375Z,3.30
2019-02-16T08:01:27.158Z,3.40
2019-02-16T08:03:31.772Z,3.40
2019-02-16T08:05:55.375Z,3.50
2019-02-16T08:07:59.236Z,3.50
2019-02-16T08:10:02.114Z,3.50
2019-02-16T08:12:08.627Z,3.60
2019-02-16T08:14:16.031Z,3.70
2019-02-16T08:16:22.071Z,3.80
2019-02-16T08:18:28.983Z,3.70
2019-02-16T08:20:34.266Z,3.90
2019-02-16T08:22:38.529Z,3.90
2019-02-16T08:24:43.108Z,4.00
2019-02-16T08:27:00.881Z,4.00
2019-02-16T08:29:11.221Z,4.10
2019-02-16T08:31:26.624Z,4.20
2019-02-16T08:33:33.356Z,4.20
2019-02-16T08:35:40.115Z,4.30
2019-02-16T08:37:58.756Z,4.30
2019-02-16T08:40:17.579Z,4.30
2019-02-16T08:42:22.120Z,4.40
2019-02-16T08:44:25.471Z,4.50
2019-02-16T08:46:34.160Z,4.60
2019-02-16T08:48:40.964Z,4.70
2019-02-16T08:50:48.450Z,4.80
2019-02-16T08:53:02.852Z,4.80
2019-02-16T08:55:21.496Z,4.80
2019-02-16T08:57:39.259Z,4.90
2019-02-16T08:59:43.808Z,5.00
2019-02-16T09:02:03.435Z,5.00
2019-02-16T09:04:07.749Z,5.00
2019-02-16T09:06:27.540Z,5.10
2019-02-16T09:08:31.911Z,5.20
2019-02-16T09:10:36.451Z,5.20
2019-02-16T09:12:54.946Z,5.30
2019-02-16T09:15:04.042Z,5.40
2019-02-16T09:17:09.585Z,5.40
2019-02-16T09:19:27.368Z,5.50
2019-02-16T09:21:46.508Z,5.50
2019-02-16T09:23:59.030Z,5.60
2019-02-16T09:26:08.892Z,5.70
2019-02-16T09:28:17.295Z,5.70
2019-02-16T09:30:23.548Z,5.80
2019-02-16T09:32:30.065Z,5.80
2019-02-16T09:34:35.747Z,5.90
2019-02-16T09:36:40.874Z,5.90
2019-02-16T09:38:49.186Z,6.00
2019-02-16T09:40:54.292Z,6.10
2019-02-16T09:43:14.374Z,6.10
2019-02-16T09:45:17.767Z,6.10
2019-02-16T09:47:22.607Z,6.20
2019-02-16T09:49:27.008Z,6.30
2019-02-16T09:51:34.495Z,6.30
2019-02-16T09:53:38.173Z,6.40
2019-02-16T09:55:56.770Z,6.40
2019-02-16T09:58:16.189Z,6.50
2019-02-16T10:00:22.570Z,6.50
2019-02-16T10:02:26.995Z,6.60
2019-02-16T10:04:31.038Z,6.70
2019-02-16T10:06:39.615Z,6.60
2019-02-16T10:08:48.294Z,6.70
2019-02-16T10:10:51.940Z,6.80
2019-02-16T10:13:00.531Z,6.90
2019-02-16T10:15:06.948Z,6.90
2019-02-16T10:17:10.109Z,7.00
2019-02-16T10:19:17.727Z,7.00
2019-02-16T10:21:24.264Z,7.10
2019-02-16T10:23:28.836Z,7.20
2019-02-16T10:25:36.680Z,7.10
2019-02-16T10:27:57.132Z,7.30
2019-02-16T10:30:00.883Z,7.20
2019-02-16T10:32:09.507Z,7.40
2019-02-16T10:34:15.020Z,7.40
2019-02-16T10:36:24.348Z,7.40
2019-02-16T10:38:28.390Z,7.40
2019-02-16T10:40:37.789Z,7.50
2019-02-16T10:42:56.538Z,7.50
2019-02-16T10:45:12.227Z,7.60
2019-02-16T10:47:20.496Z,7.70
2019-02-16T10:49:39.189Z,7.70
2019-02-16T10:51:52.847Z,7.80
2019-02-16T10:54:07.054Z,7.90
2019-02-16T10:56:25.705Z,7.80
2019-02-16T10:58:30.524Z,7.90
2019-02-16T11:00:39.435Z,8.00
2019-02-16T11:02:57.400Z,8.00
2019-02-16T11:05:03.998Z,8.10
2019-02-16T11:07:11.341Z,8.20
2019-02-16T11:09:14.240Z,8.20
2019-02-16T11:11:22.176Z,8.30
2019-02-16T11:13:25.068Z,8.30
2019-02-16T11:15:32.668Z,8.30
2019-02-16T11:17:43.059Z,8.40
2019-02-16T11:19:47.379Z,8.40
2019-02-16T11:22:11.790Z,8.50
2019-02-16T11:24:21.109Z,8.60
2019-02-16T11:26:41.450Z,8.70
2019-02-16T11:28:50.025Z,8.60
2019-02-16T11:30:53.724Z,8.70
2019-02-16T11:32:57.395Z,8.90
2019-02-16T11:35:14.996Z,9.10
2019-02-16T11:37:18.360Z,9.00
2019-02-16T11:39:24.135Z,9.20
2019-02-16T11:41:27.531Z,9.30
2019-02-16T11:43:47.188Z,9.40
2019-02-16T11:45:50.083Z,9.50
2019-02-16T11:48:07.877Z,9.60
2019-02-16T11:50:16.536Z,9.60
2019-02-16T11:52:36.093Z,9.70
2019-02-16T11:54:45.682Z,9.80
2019-02-16T11:57:00.703Z,9.90
2019-02-16T11:59:24.093Z,9.90
2019-02-16T12:01:27.809Z,10.00
2019-02-16T12:03:48.171Z,10.10
2019-02-16T12:05:54.617Z,10.10
2019-02-16T12:08:00.971Z,10.20
2019-02-16T12:10:20.590Z,10.30
2019-02-16T12:12:29.192Z,10.30
2019-02-16T12:14:32.210Z,10.40
2019-02-16T12:16:38.751Z,10.50
2019-02-16T12:18:48.212Z,10.60
2019-02-16T12:21:05.991Z,10.60
2019-02-16T12:23:08.908Z,10.70
2019-02-16T12:25:19.139Z,10.80
2019-02-16T12:27:40.840Z,10.80
2019-02-16T12:29:49.596Z,10.90
2019-02-16T12:32:08.137Z,11.10
2019-02-16T12:34:27.677Z,11.20
2019-02-16T12:36:32.565Z,11.20
2019-02-16T12:38:51.109Z,11.30
2019-02-16T12:40:54.958Z,11.40
2019-02-16T12:43:03.539Z,11.40
2019-02-16T12:45:09.832Z,11.50
2019-02-16T12:47:27.632Z,11.60
2019-02-16T12:49:35.456Z,11.70
2019-02-16T12:51:42.041Z,11.80
2019-02-16T12:53:50.803Z,11.90
2019-02-16T12:55:57.839Z,12.00
2019-02-16T12:58:06.752Z,12.10
2019-02-16T13:00:12.108Z,12.20
2019-02-16T13:02:19.128Z,12.30
2019-02-16T13:04:40.023Z,12.30
2019-02-16T13:07:01.244Z,12.60
2019-02-16T13:09:04.959Z,12.60
2019-02-16T13:11:14.023Z,12.70
2019-02-16T13:13:16.910Z,12.90
2019-02-16T13:15:32.315Z,13.10
2019-02-16T13:17:38.964Z,13.30
2019-02-16T13:19:55.487Z,13.40
2019-02-16T13:22:02.088Z,13.40
2019-02-16T13:24:07.456Z,13.50
2019-02-16T13:26:10.379Z,13.60
2019-02-16T13:28:31.952Z,13.70
2019-02-16T13:30:35.793Z,13.80
2019-02-16T13:32:44.892Z,14.00
2019-02-16T13:34:48.414Z,14.00
2019-02-16T13:37:02.015Z,14.20
2019-02-16T13:39:20.683Z,14.20
2019-02-16T13:41:41.091Z,14.40
2019-02-16T13:43:44.727Z,14.50
2019-02-16T13:45:47.652Z,14.40
2019-02-16T13:47:52.952Z,14.60
2019-02-16T13:49:59.372Z,14.70
2019-02-16T13:52:14.846Z,14.80
2019-02-16T13:54:21.618Z,14.90
2019-02-16T13:56:43.914Z,15.00
2019-02-16T13:58:50.251Z,15.00
2019-02-16T14:00:57.944Z,15.00
2019-02-16T14:03:02.630Z,15.20
2019-02-16T14:05:08.135Z,15.20
2019-02-16T14:07:11.812Z,15.30
2019-02-16T14:09:31.587Z,15.40
2019-02-16T14:11:36.653Z,15.50
2019-02-16T14:13:40.358Z,15.70
2019-02-16T14:15:44.753Z,15.70
2019-02-16T14:17:48.537Z,15.80
2019-02-16T14:19:51.490Z,15.80
2019-02-16T14:21:55.131Z,15.90
2019-02-16T14:23:58.016Z,15.90
2019-02-16T14:26:01.124Z,16.00
2019-02-16T14:28:05.461Z,16.00
2019-02-16T14:30:10.052Z,16.10
2019-02-16T14:32:13.357Z,16.10
2019-02-16T14:34:17.060Z,16.20
2019-02-16T14:36:20.720Z,16.20
2019-02-16T14:38:33.595Z,16.20
2019-02-16T14:40:37.872Z,16.20
2019-02-16T14:42:41.469Z,16.20
2019-02-16T14:44:45.173Z,16.30
2019-02-16T14:46:48.504Z,16.20
2019-02-16T14:48:51.752Z,16.30
2019-02-16T14:50:56.264Z,16.30
2019-02-16T14:52:59.776Z,16.30
2019-02-16T14:55:03.465Z,16.30
2019-02-16T14:57:07.987Z,16.30
2019-02-16T14:59:11.652Z,16.30
2019-02-16T15:01:14.551Z,16.20
2019-02-16T15:03:17.556Z,16.30
2019-02-16T15:05:21.244Z,16.20
2019-02-16T15:07:25.168Z,16.20
2019-02-16T15:09:28.852Z,16.20
2019-02-16T15:11:32.514Z,16.20
2019-02-16T15:13:35.436Z,16.10
2019-02-16T15:15:39.239Z,16.10
2019-02-16T15:17:42.899Z,16.10
2019-02-16T15:19:45.825Z,16.00
2019-02-16T15:21:49.620Z,16.00
2019-02-16T15:23:52.600Z,16.00
2019-02-16T15:26:00.997Z,16.00
2019-02-16T15:27:59.180Z,16.30
2019-02-16T15:30:02.063Z,16.30
2019-02-16T15:32:05.731Z,16.20
2019-02-16T15:34:08.654Z,16.20
2019-02-16T15:36:12.622Z,16.10
2019-02-16T15:38:15.512Z,16.10
2019-02-16T15:40:19.932Z,16.00
2019-02-16T15:42:23.719Z,16.00
2019-02-16T15:44:26.621Z,16.00
2019-02-16T15:46:29.538Z,15.90
2019-02-16T15:48:32.965Z,15.90
2019-02-16T15:50:35.865Z,15.90
2019-02-16T15:52:38.879Z,15.90
2019-02-16T15:54:42.539Z,15.80
2019-02-16T15:56:45.459Z,15.80
2019-02-16T15:58:49.178Z,15.70
2019-02-16T16:00:53.599Z,15.70
2019-02-16T16:02:56.459Z,15.70
2019-02-16T16:04:59.368Z,15.70
2019-02-16T16:07:02.273Z,15.70
2019-02-16T16:09:05.151Z,15.70
2019-02-16T16:11:08.478Z,15.70
2019-02-16T16:13:12.992Z,15.60
2019-02-16T16:15:22.293Z,15.50
2019-02-16T16:17:31.043Z,15.50
2019-02-16T16:19:34.384Z,15.50
2019-02-16T16:21:52.176Z,15.40
2019-02-16T16:24:14.193Z,15.20
2019-02-16T16:26:20.002Z,15.20
2019-02-16T16:28:24.519Z,15.20
2019-02-16T16:30:29.072Z,15.00
2019-02-16T16:32:42.750Z,15.00
2019-02-16T16:34:52.936Z,14.80
2019-02-16T16:36:58.729Z,14.80
2019-02-16T16:39:07.244Z,14.70
2019-02-16T16:41:29.821Z,14.50
2019-02-16T16:43:32.755Z,14.50
2019-02-16T16:45:50.644Z,14.50
2019-02-16T16:48:04.364Z,14.40
2019-02-16T16:50:19.517Z,14.30
2019-02-16T16:52:39.325Z,14.10
2019-02-16T16:54:42.235Z,14.10
2019-02-16T16:56:48.490Z,14.00
2019-02-16T16:58:53.030Z,13.80
2019-02-16T17:01:00.567Z,13.70
2019-02-16T17:03:09.240Z,13.70
2019-02-16T17:05:13.903Z,13.60
2019-02-16T17:07:17.504Z,13.50
2019-02-16T17:09:36.727Z,13.50
2019-02-16T17:11:58.124Z,13.30
2019-02-16T17:14:18.777Z,13.30
2019-02-16T17:16:36.472Z,13.20
2019-02-16T17:18:54.300Z,13.10
2019-02-16T17:21:01.651Z,12.80
2019-02-16T17:23:14.502Z,12.80
2019-02-16T17:25:21.193Z,12.60
2019-02-16T17:27:33.428Z,12.50
2019-02-16T17:29:36.764Z,12.40
2019-02-16T17:31:41.151Z,12.20
2019-02-16T17:34:04.667Z,12.10
2019-02-16T17:36:09.961Z,12.00
2019-02-16T17:38:23.597Z,12.00
2019-02-16T17:40:37.213Z,11.90
2019-02-16T17:42:55.852Z,11.80
2019-02-16T17:45:16.510Z,11.70
2019-02-16T17:47:37.741Z,11.60
2019-02-16T17:49:56.330Z,11.40
2019-02-16T17:52:18.567Z,11.20
2019-02-16T17:54:21.228Z,11.10
2019-02-16T17:56:46.566Z,11.10
2019-02-16T17:58:45.512Z,10.90
2019-02-16T18:01:03.291Z,10.80
2019-02-16T18:03:07.357Z,10.80
2019-02-16T18:05:13.166Z,10.70
2019-02-16T18:07:18.632Z,10.50
2019-02-16T18:09:21.629Z,10.50
2019-02-16T18:11:39.821Z,10.40
2019-02-16T18:13:44.355Z,10.30
2019-02-16T18:15:52.855Z,10.30
2019-02-16T18:17:56.515Z,10.20
2019-02-16T18:19:59.434Z,10.10
2019-02-16T18:22:07.614Z,10.00
2019-02-16T18:24:16.049Z,10.00
2019-02-16T18:26:24.924Z,9.90
2019-02-16T18:28:39.144Z,9.90
2019-02-16T18:30:42.052Z,9.80
2019-02-16T18:32:47.635Z,9.70
2019-02-16T18:35:08.026Z,9.60
2019-02-16T18:37:10.905Z,9.60
2019-02-16T18:39:29.436Z,9.50
2019-02-16T18:41:34.938Z,9.50
2019-02-16T18:43:37.848Z,9.40
2019-02-16T18:45:43.648Z,9.40
2019-02-16T18:47:53.192Z,9.30
2019-02-16T18:50:11.764Z,9.20
2019-02-16T18:52:21.400Z,9.10
2019-02-16T18:54:24.729Z,9.10
2019-02-16T18:56:29.182Z,9.10
2019-02-16T18:58:52.282Z,9.00
2019-02-16T19:01:10.078Z,9.00
2019-02-16T19:03:23.807Z,8.90
2019-02-16T19:05:33.781Z,8.80
2019-02-16T19:07:37.623Z,8.80
2019-02-16T19:09:44.204Z,8.80
2019-02-16T19:11:53.041Z,8.70
2019-02-16T19:13:57.378Z,8.70
2019-02-16T19:16:21.044Z,8.70
2019-02-16T19:18:29.485Z,8.60
2019-02-16T19:20:45.150Z,8.60
2019-02-16T19:22:53.832Z,8.50
2019-02-16T19:24:57.637Z,8.50
2019-02-16T19:27:16.126Z,8.40
2019-02-16T19:29:12.789Z,8.40
2019-02-16T19:31:18.474Z,8.30
2019-02-16T19:33:21.364Z,8.30
2019-02-16T19:35:24.255Z,8.30
2019-02-16T19:37:42.055Z,8.20
2019-02-16T19:39:51.589Z,8.10
2019-02-16T19:41:56.913Z,8.10
2019-02-16T19:43:59.844Z,8.10
2019-02-16T19:46:18.446Z,8.00
2019-02-16T19:48:24.987Z,7.90
2019-02-16T19:50:45.689Z,7.90
2019-02-16T19:52:54.288Z,7.90
2019-02-16T19:54:59.131Z,7.90
2019-02-16T19:57:03.864Z,7.80
2019-02-16T19:59:08.732Z,7.80
2019-02-16T20:01:17.296Z,7.80
2019-02-16T20:03:23.940Z,7.80
2019-02-16T20:05:42.655Z,7.70
2019-02-16T20:07:48.418Z,7.70
2019-02-16T20:10:10.100Z,7.70
2019-02-16T20:12:27.534Z,7.60
2019-02-16T20:14:42.909Z,7.60
2019-02-16T20:16:48.432Z,7.60
2019-02-16T20:18:56.149Z,7.50
2019-02-16T20:21:05.622Z,7.40
2019-02-16T20:23:23.388Z,7.40
2019-02-16T20:25:27.474Z,7.40
2019-02-16T20:27:37.392Z,7.30
2019-02-16T20:29:34.421Z,7.30
2019-02-16T20:31:37.743Z,7.30
2019-02-16T20:33:50.550Z,7.20
2019-02-16T20:36:12.153Z,7.20
2019-02-16T20:38:15.873Z,7.20
2019-02-16T20:40:20.250Z,7.20
2019-02-16T20:42:23.335Z,7.10
2019-02-16T20:44:30.764Z,7.10
2019-02-16T20:46:37.160Z,7.10
2019-02-16T20:48:41.301Z,7.00
2019-02-16T20:50:45.099Z,7.00
2019-02-16T20:53:06.012Z,7.00
2019-02-16T20:55:12.814Z,7.00
2019-02-16T20:57:31.255Z,7.00
2019-02-16T20:59:34.469Z,6.90
2019-02-16T21:01:38.166Z,6.90
2019-02-16T21:03:41.591Z,6.90
2019-02-16T21:05:46.237Z,6.90
2019-02-16T21:07:52.091Z,6.90
2019-02-16T21:09:59.764Z,6.90
2019-02-16T21:12:22.192Z,6.80
2019-02-16T21:14:36.581Z,6.80
2019-02-16T21:16:45.305Z,6.80
2019-02-16T21:19:03.079Z,6.80
2019-02-16T21:21:21.623Z,6.70
2019-02-16T21:23:41.022Z,6.70
2019-02-16T21:26:01.463Z,6.60
2019-02-16T21:28:06.938Z,6.60
2019-02-16T21:30:13.456Z,6.60
2019-02-16T21:32:17.955Z,6.60
2019-02-16T21:34:20.857Z,6.60
2019-02-16T21:36:27.590Z,6.50
2019-02-16T21:38:46.240Z,6.50
2019-02-16T21:40:53.536Z,6.40
2019-02-16T21:43:02.524Z,6.40
2019-02-16T21:45:10.573Z,6.40
2019-02-16T21:47:29.969Z,6.40
2019-02-16T21:49:32.950Z,6.40
2019-02-16T21:51:41.858Z,6.40
2019-02-16T21:53:45.360Z,6.40
2019-02-16T21:55:48.692Z,6.30
2019-02-16T21:58:08.348Z,6.30
2019-02-16T22:00:24.478Z,6.30
2019-02-16T22:02:43.735Z,6.30
2019-02-16T22:04:50.008Z,6.20
2019-02-16T22:06:58.636Z,6.20
2019-02-16T22:09:07.403Z,6.20
2019-02-16T22:11:16.107Z,6.20
2019-02-16T22:13:19.283Z,6.20
2019-02-16T22:15:22.838Z,6.10
2019-02-16T22:17:26.475Z,6.10
2019-02-16T22:19:30.097Z,6.10
2019-02-16T22:21:33.080Z,6.10
2019-02-16T22:23:35.960Z,6.10
2019-02-16T22:25:38.844Z,6.00
2019-02-16T22:27:41.768Z,6.00
2019-02-16T22:29:45.407Z,6.00
2019-02-16T22:31:48.332Z,6.00
2019-02-16T22:33:52.143Z,6.00
2019-02-16T22:35:55.101Z,6.00
2019-02-16T22:37:58.104Z,6.00
2019-02-16T22:40:01.888Z,5.90
2019-02-16T22:42:05.584Z,6.00
2019-02-16T22:44:09.240Z,5.90
2019-02-16T22:46:12.276Z,5.90
2019-02-16T22:48:16.676Z,5.90
2019-02-16T22:50:19.559Z,5.90
2019-02-16T22:52:22.560Z,5.90
2019-02-16T22:54:26.275Z,5.80
2019-02-16T22:56:29.951Z,5.80
2019-02-16T22:58:32.876Z,5.80
2019-02-16T23:00:35.759Z,5.80
2019-02-16T23:02:38.645Z,5.80
2019-02-16T23:04:41.558Z,5.80
2019-02-16T23:06:44.481Z,5.80
2019-02-16T23:08:48.960Z,5.70
2019-02-16T23:10:52.256Z,5.70
2019-02-16T23:12:55.243Z,5.70
2019-02-16T23:14:58.119Z,5.70
2019-02-16T23:17:01.417Z,5.70
2019-02-16T23:19:04.326Z,5.60
2019-02-16T23:21:07.978Z,5.60
2019-02-16T23:23:10.873Z,5.60
2019-02-16T23:25:13.760Z,5.60
2019-02-16T23:27:16.694Z,5.60
2019-02-16T23:29:19.618Z,5.60
2019-02-16T23:31:22.642Z,5.50
2019-02-16T23:33:26.457Z,5.50
2019-02-16T23:35:29.620Z,5.50
2019-02-16T23:37:33.271Z,5.50
2019-02-16T23:39:36.492Z,5.50
2019-02-16T23:41:40.184Z,5.40
2019-02-16T23:43:43.837Z,5.40
2019-02-16T23:45:46.777Z,5.30
2019-02-16T23:47:51.264Z,5.30
2019-02-16T23:49:54.156Z,5.30
2019-02-16T23:51:57.459Z,5.30
2019-02-16T23:54:01.633Z,5.30
2019-02-16T23:56:04.548Z,5.20
2019-02-16T23:58:08.244Z,5.20
